TimeAKST,TemperatureF,Dew PointF,Humidity,Sea Level PressureIn,VisibilityMPH,Wind Direction,Wind SpeedMPH,Gust SpeedMPH,PrecipitationIn,Events,Conditions,WindDirDegrees,DateUTC
12:16 AM,-11.2,-14.8,84,-9999,10.0,SSW,3.5,-,N/A,,Clear,200,2013-11-07 09:16:00
12:36 AM,-11.2,-14.8,84,-9999,10.0,Calm,Calm,-,N/A,,Clear,0,2013-11-07 09:36:00
12:56 AM,-11.2,-13.0,92,-9999,10.0,West,3.5,-,N/A,,Clear,260,2013-11-07 09:56:00
1:16 AM,-9.4,-14.8,77,-9999,10.0,Calm,Calm,-,N/A,,Clear,0,2013-11-07 10:16:00
1:36 AM,-11.2,-14.8,84,-9999,10.0,Calm,Calm,-,N/A,,Clear,0,2013-11-07 10:36:00
1:56 AM,-11.2,-14.8,84,-9999,10.0,Calm,Calm,-,N/A,,Clear,0,2013-11-07 10:56:00
2:16 AM,-11.2,-14.8,84,-9999,10.0,Calm,Calm,-,N/A,,Clear,0,2013-11-07 11:16:00
2:36 AM,-11.2,-14.8,84,-9999,10.0,Calm,Calm,-,N/A,,Clear,0,2013-11-07 11:36:00
2:56 AM,-11.2,-14.8,84,-9999,10.0,Calm,Calm,-,N/A,,Clear,0,2013-11-07 11:56:00
3:16 AM,-11.2,-14.8,84,-9999,10.0,South,3.5,-,N/A,,Clear,190,2013-11-07 12:16:00
3:36 AM,-9.4,-11.2,92,-9999,10.0,Calm,Calm,-,N/A,,Clear,0,2013-11-07 12:36:00
3:56 AM,-9.4,-14.8,77,-9999,10.0,Calm,Calm,-,N/A,,Clear,0,2013-11-07 12:56:00
4:16 AM,-9.4,-13.0,84,-9999,10.0,Calm,Calm,-,N/A,,Clear,0,2013-11-07 13:16:00
4:36 AM,-11.2,-14.8,84,-9999,10.0,Calm,Calm,-,N/A,,Clear,0,2013-11-07 13:36:00
4:56 AM,-11.2,-13.0,92,-9999,10.0,Calm,Calm,-,N/A,,Clear,0,2013-11-07 13:56:00
5:16 AM,-9.4,-13.0,84,-9999,10.0,Calm,Calm,-,N/A,,Clear,0,2013-11-07 14:16:00
5:36 AM,-9.4,-13.0,84,-9999,10.0,Calm,Calm,-,N/A,,Clear,0,2013-11-07 14:36:00
5:56 AM,-9.4,-11.2,92,-9999,10.0,Calm,Calm,-,N/A,,Clear,0,2013-11-07 14:56:00
6:16 AM,-7.6,-9.4,92,-9999,10.0,Calm,Calm,-,N/A,,Clear,0,2013-11-07 15:16:00
6:36 AM,-5.8,-5.8,100,-9999,10.0,Calm,Calm,-,N/A,,Clear,0,2013-11-07 15:36:00
6:56 AM,-2.2,-2.2,100,-9999,10.0,WSW,6.9,-,N/A,,Clear,250,2013-11-07 15:56:00
7:16 AM,1.4,-0.4,92,-9999,10.0,SW,5.8,-,N/A,,Clear,220,2013-11-07 16:16:00
7:36 AM,3.2,1.4,92,-9999,10.0,SSW,4.6,-,N/A,,Clear,210,2013-11-07 16:36:00
7:56 AM,3.2,1.4,92,29.79,10.0,WSW,4.6,-,N/A,,Clear,240,2013-11-07 16:56:00
8:16 AM,5.0,3.2,92,29.78,10.0,SW,4.6,-,N/A,,Clear,220,2013-11-07 17:16:00
8:36 AM,6.8,3.2,85,29.78,10.0,SW,4.6,-,N/A,,Clear,220,2013-11-07 17:36:00
8:56 AM,5.0,3.2,92,29.78,10.0,SSW,3.5,-,N/A,,Clear,210,2013-11-07 17:56:00
9:16 AM,6.8,5.0,92,29.78,10.0,SSW,4.6,-,N/A,,Clear,210,2013-11-07 18:16:00
9:36 AM,8.6,6.8,92,29.78,10.0,SW,4.6,-,N/A,,Clear,220,2013-11-07 18:36:00
9:56 AM,8.6,6.8,92,29.78,10.0,SW,5.8,-,N/A,,Clear,220,2013-11-07 18:56:00
10:16 AM,8.6,6.8,92,29.78,10.0,Calm,Calm,-,N/A,,Clear,0,2013-11-07 19:16:00
10:36 AM,8.6,6.8,92,29.78,10.0,SW,3.5,-,N/A,,Clear,230,2013-11-07 19:36:00
10:56 AM,12.2,8.6,85,29.78,10.0,Calm,Calm,-,N/A,,Clear,0,2013-11-07 19:56:00
11:16 AM,14.0,10.4,86,29.78,10.0,Calm,Calm,-,N/A,,Clear,0,2013-11-07 20:16:00
11:36 AM,15.8,10.4,79,29.77,10.0,WSW,3.5,-,N/A,,Clear,240,2013-11-07 20:36:00
11:56 AM,17.6,12.2,79,29.77,10.0,SW,3.5,-,N/A,,Clear,220,2013-11-07 20:56:00
12:16 PM,21.2,10.4,63,29.77,10.0,Calm,Calm,-,N/A,,Clear,0,2013-11-07 21:16:00
12:36 PM,23.0,12.2,63,29.76,10.0,Calm,Calm,-,N/A,,Clear,0,2013-11-07 21:36:00
12:56 PM,23.0,10.4,59,29.76,10.0,Calm,Calm,-,N/A,,Clear,0,2013-11-07 21:56:00
1:16 PM,23.0,10.4,59,29.76,10.0,WSW,4.6,-,N/A,,Clear,240,2013-11-07 22:16:00
1:36 PM,24.8,12.2,59,29.76,10.0,WSW,3.5,-,N/A,,Clear,250,2013-11-07 22:36:00
1:56 PM,24.8,10.4,54,29.76,10.0,SW,5.8,-,N/A,,Clear,220,2013-11-07 22:56:00
2:16 PM,24.8,10.4,54,29.76,10.0,Calm,Calm,-,N/A,,Clear,0,2013-11-07 23:16:00
2:36 PM,24.8,12.2,59,29.76,10.0,WSW,5.8,-,N/A,,Clear,240,2013-11-07 23:36:00
2:56 PM,23.0,10.4,59,29.76,10.0,Calm,Calm,-,N/A,,Clear,0,2013-11-07 23:56:00
3:16 PM,19.4,10.4,68,29.77,10.0,SSW,3.5,-,N/A,,Clear,210,2013-11-08 00:16:00
3:36 PM,15.8,10.4,79,29.77,10.0,SW,3.5,-,N/A,,Clear,230,2013-11-08 00:36:00
3:56 PM,15.8,8.6,73,29.77,10.0,SSW,4.6,-,N/A,,Clear,200,2013-11-08 00:56:00
4:16 PM,12.2,8.6,85,29.77,10.0,Calm,Calm,-,N/A,,Clear,0,2013-11-08 01:16:00
4:36 PM,12.2,8.6,85,29.77,10.0,Calm,Calm,-,N/A,,Clear,0,2013-11-08 01:36:00
4:56 PM,10.4,6.8,85,29.77,10.0,Calm,Calm,-,N/A,,Clear,0,2013-11-08 01:56:00
5:16 PM,10.4,6.8,85,29.77,10.0,Calm,Calm,-,N/A,,Clear,0,2013-11-08 02:16:00
5:36 PM,8.6,5.0,85,29.78,10.0,Calm,Calm,-,N/A,,Clear,0,2013-11-08 02:36:00
5:56 PM,8.6,6.8,92,29.78,10.0,SW,3.5,-,N/A,,Clear,220,2013-11-08 02:56:00
6:16 PM,10.4,6.8,85,29.78,10.0,Calm,Calm,-,N/A,,Clear,0,2013-11-08 03:16:00
6:36 PM,8.6,5.0,85,29.79,10.0,WSW,3.5,-,N/A,,Clear,240,2013-11-08 03:36:00
6:56 PM,8.6,5.0,85,29.79,10.0,Calm,Calm,-,N/A,,Clear,0,2013-11-08 03:56:00
7:16 PM,6.8,3.2,85,29.79,10.0,SSW,6.9,-,N/A,,Clear,210,2013-11-08 04:16:00
7:36 PM,6.8,3.2,85,29.80,10.0,Calm,Calm,-,N/A,,Clear,0,2013-11-08 04:36:00
7:56 PM,6.8,3.2,85,29.80,10.0,SSW,3.5,-,N/A,,Clear,210,2013-11-08 04:56:00
8:16 PM,5.0,1.4,85,29.81,10.0,Calm,Calm,-,N/A,,Clear,0,2013-11-08 05:16:00
8:36 PM,3.2,-0.4,85,29.82,10.0,Calm,Calm,-,N/A,,Clear,0,2013-11-08 05:36:00
8:56 PM,1.4,-0.4,92,29.82,10.0,Calm,Calm,-,N/A,,Clear,0,2013-11-08 05:56:00
9:16 PM,-0.4,-2.2,92,29.83,10.0,Calm,Calm,-,N/A,,Clear,0,2013-11-08 06:16:00
9:36 PM,-0.4,-4.0,85,29.83,10.0,Calm,Calm,-,N/A,,Clear,0,2013-11-08 06:36:00
9:56 PM,-2.2,-4.0,92,29.84,10.0,Calm,Calm,-,N/A,,Clear,0,2013-11-08 06:56:00
10:16 PM,-2.2,-4.0,92,29.85,10.0,Calm,Calm,-,N/A,,Clear,0,2013-11-08 07:16:00
10:36 PM,-2.2,-5.8,85,29.85,10.0,Calm,Calm,-,N/A,,Clear,0,2013-11-08 07:36:00
10:56 PM,-4.0,-5.8,92,29.86,10.0,Calm,Calm,-,N/A,,Clear,0,2013-11-08 07:56:00
11:16 PM,-4.0,-5.8,92,29.86,10.0,Calm,Calm,-,N/A,,Clear,0,2013-11-08 08:16:00
11:36 PM,-4.0,-7.6,85,29.87,10.0,Calm,Calm,-,N/A,,Clear,0,2013-11-08 08:36:00
11:56 PM,-5.8,-7.6,92,29.88,10.0,Calm,Calm,-,N/A,,Clear,0,2013-11-08 08:56:00